createdAt,value
2019-05-23T00:01:23.415Z,11.83
2019-05-23T00:10:43.044Z,11.73
2019-05-23T00:16:52.369Z,11.68
2019-05-23T00:23:06.983Z,11.54
2019-05-23T00:25:57.828Z,11.46
2019-05-23T00:28:41.605Z,11.41
2019-05-23T00:31:29.980Z,11.36
2019-05-23T00:37:44.101Z,11.29
2019-05-23T00:40:27.996Z,11.22
2019-05-23T00:46:48.763Z,11.17
2019-05-23T00:49:39.239Z,11.13
2019-05-23T00:52:42.901Z,11.09
2019-05-23T00:58:37.399Z,10.97
2019-05-23T01:01:28.187Z,10.90
2019-05-23T01:04:13.310Z,10.88
2019-05-23T01:07:04.157Z,10.84
2019-05-23T01:09:47.553Z,10.79
2019-05-23T01:16:07.153Z,10.73
2019-05-23T01:18:57.811Z,10.68
2019-05-23T01:28:16.595Z,10.53
2019-05-23T01:31:02.740Z,10.50
2019-05-23T01:37:23.149Z,10.43
2019-05-23T01:40:14.284Z,10.36
2019-05-23T01:42:58.534Z,10.31
2019-05-23T01:45:48.942Z,10.26
2019-05-23T01:48:31.920Z,10.24
2019-05-23T01:51:15.386Z,10.20
2019-05-23T01:54:06.104Z,10.16
2019-05-23T01:56:50.515Z,10.15
2019-05-23T01:59:41.008Z,10.15
2019-05-23T02:02:25.109Z,10.13
2019-05-23T02:08:26.251Z,10.15
2019-05-23T02:11:37.574Z,10.17
2019-05-23T02:14:21.481Z,10.19
2019-05-23T02:17:23.095Z,10.20
2019-05-23T02:24:02.370Z,10.14
2019-05-23T02:26:52.812Z,10.19
2019-05-23T02:32:54.175Z,10.26
2019-05-23T02:35:44.753Z,10.19
2019-05-23T02:38:52.701Z,10.33
2019-05-23T02:42:01.994Z,10.25
2019-05-23T02:44:47.153Z,10.18
2019-05-23T02:51:05.198Z,10.27
2019-05-23T02:56:50.026Z,10.14
2019-05-23T03:06:19.610Z,10.15
2019-05-23T03:09:30.871Z,10.16
2019-05-23T03:12:15.985Z,10.11
2019-05-23T03:18:17.911Z,10.10
2019-05-23T03:24:33.382Z,10.03
2019-05-23T03:31:25.098Z,10.10
2019-05-23T03:34:31.831Z,10.02
2019-05-23T03:37:16.929Z,10.01
2019-05-23T03:40:08.537Z,9.93
2019-05-23T03:42:52.223Z,9.82
2019-05-23T03:48:41.532Z,9.79
2019-05-23T03:51:32.225Z,9.81
2019-05-23T03:54:15.845Z,9.82
2019-05-23T04:00:33.851Z,9.83
2019-05-23T04:06:49.470Z,9.82
2019-05-23T04:12:43.228Z,9.91
2019-05-23T04:15:33.592Z,9.92
2019-05-23T04:18:16.579Z,9.92
2019-05-23T04:21:07.033Z,9.95
2019-05-23T04:23:49.594Z,10.00
2019-05-23T04:26:40.594Z,10.02
2019-05-23T04:29:24.532Z,10.16
2019-05-23T04:32:14.998Z,10.16
2019-05-23T04:34:58.274Z,10.29
2019-05-23T04:41:12.032Z,10.31
2019-05-23T04:44:02.387Z,10.33
2019-05-23T04:46:46.093Z,10.33
2019-05-23T04:49:36.720Z,10.35
2019-05-23T04:52:20.977Z,10.35
2019-05-23T04:58:36.489Z,10.42
2019-05-23T05:01:27.387Z,10.51
2019-05-23T05:04:10.858Z,10.57
2019-05-23T05:07:01.512Z,10.62
2019-05-23T05:09:44.809Z,10.75
2019-05-23T05:12:35.453Z,10.80
2019-05-23T05:15:18.738Z,10.84
2019-05-23T05:21:12.474Z,10.97
2019-05-23T05:24:02.932Z,11.10
2019-05-23T05:26:45.786Z,11.19
2019-05-23T05:29:36.202Z,11.33
2019-05-23T05:32:20.289Z,11.43
2019-05-23T05:35:03.815Z,11.55
2019-05-23T05:37:54.367Z,11.54
2019-05-23T05:43:39.575Z,11.87
2019-05-23T05:46:30.224Z,12.06
2019-05-23T05:49:13.219Z,12.21
2019-05-23T05:55:07.619Z,12.52
2019-05-23T05:57:57.967Z,12.64
2019-05-23T06:00:59.548Z,12.77
2019-05-23T06:03:50.458Z,12.83
2019-05-23T06:06:38.399Z,13.00
2019-05-23T06:12:57.636Z,13.26
2019-05-23T06:15:48.804Z,13.55
2019-05-23T06:18:39.683Z,13.75
2019-05-23T06:24:50.400Z,13.99
2019-05-23T06:27:48.864Z,14.08
2019-05-23T06:30:39.502Z,14.18
2019-05-23T06:33:24.425Z,14.35
2019-05-23T06:36:07.694Z,14.45
2019-05-23T06:38:58.178Z,14.66
2019-05-23T06:41:41.662Z,14.78
2019-05-23T06:47:35.316Z,15.20
2019-05-23T06:50:26.094Z,15.43
2019-05-23T06:53:09.588Z,15.57
2019-05-23T06:55:59.978Z,15.67
2019-05-23T06:58:42.836Z,15.76
2019-05-23T07:01:33.360Z,15.98
2019-05-23T07:04:36.127Z,16.09
2019-05-23T07:07:26.632Z,16.30
2019-05-23T07:10:09.898Z,16.42
2019-05-23T07:13:00.290Z,16.54
2019-05-23T07:15:43.487Z,16.56
2019-05-23T07:18:33.877Z,16.75
2019-05-23T07:21:16.648Z,16.88
2019-05-23T07:27:36.743Z,17.03
2019-05-23T07:30:21.890Z,17.10
2019-05-23T07:36:40.828Z,17.42
2019-05-23T07:39:31.214Z,17.75
2019-05-23T07:42:14.397Z,17.96
2019-05-23T07:48:34.254Z,18.24
2019-05-23T07:51:24.639Z,18.59
2019-05-23T07:54:33.834Z,18.81
2019-05-23T07:57:18.657Z,18.91
2019-05-23T08:03:22.562Z,19.24
2019-05-23T08:09:18.138Z,19.77
2019-05-23T08:12:08.578Z,20.01
2019-05-23T08:14:51.676Z,20.31
2019-05-23T08:17:43.302Z,20.59
2019-05-23T08:20:34.090Z,20.69
2019-05-23T08:23:37.497Z,20.79
2019-05-23T08:26:41.893Z,20.97
2019-05-23T08:29:52.550Z,20.96
2019-05-23T08:32:24.158Z,21.11
2019-05-23T08:35:34.545Z,21.26
2019-05-23T08:38:37.560Z,21.52
2019-05-23T08:41:29.084Z,21.70
2019-05-23T08:44:39.564Z,21.65
2019-05-23T08:47:42.605Z,21.76
2019-05-23T08:50:53.183Z,22.17
2019-05-23T08:53:56.336Z,22.37
2019-05-23T08:59:56.227Z,22.46
2019-05-23T09:02:59.002Z,22.52
2019-05-23T09:08:52.769Z,23.29
2019-05-23T09:11:43.927Z,23.05
2019-05-23T09:14:27.065Z,22.89
2019-05-23T09:20:45.981Z,23.43
2019-05-23T09:23:36.344Z,23.78
2019-05-23T09:26:26.538Z,24.02
2019-05-23T09:29:09.856Z,23.55
2019-05-23T09:32:00.402Z,23.84
2019-05-23T09:34:43.203Z,23.94
2019-05-23T09:37:26.424Z,24.34
2019-05-23T09:40:16.993Z,24.21
2019-05-23T09:42:59.882Z,24.13
2019-05-23T09:45:50.223Z,24.16
2019-05-23T09:48:33.716Z,24.29
2019-05-23T09:51:24.130Z,24.55
2019-05-23T09:54:07.963Z,24.52
2019-05-23T09:56:58.583Z,24.34
2019-05-23T09:59:43.767Z,24.53
2019-05-23T10:02:34.165Z,24.62
2019-05-23T10:05:17.398Z,24.43
2019-05-23T10:08:08.078Z,24.21
2019-05-23T10:10:50.818Z,24.26
2019-05-23T10:13:41.179Z,24.57
2019-05-23T10:16:23.793Z,24.75
2019-05-23T10:19:14.247Z,25.00
2019-05-23T10:21:57.234Z,25.28
2019-05-23T10:24:47.641Z,25.03
2019-05-23T10:27:31.483Z,24.22
2019-05-23T10:30:21.981Z,24.70
2019-05-23T10:33:11.447Z,24.54
2019-05-23T10:35:59.649Z,24.74
2019-05-23T10:38:52.611Z,25.04
2019-05-23T10:41:53.755Z,25.20
2019-05-23T10:44:44.998Z,25.09
2019-05-23T10:47:48.269Z,25.68
2019-05-23T10:50:44.608Z,26.16
2019-05-23T10:53:42.869Z,26.28
2019-05-23T10:56:33.604Z,26.85
2019-05-23T10:59:16.189Z,25.66
2019-05-23T11:05:13.331Z,24.82
2019-05-23T11:11:27.490Z,24.36
2019-05-23T11:17:46.145Z,25.37
2019-05-23T11:20:36.807Z,26.19
2019-05-23T11:26:33.695Z,26.14
2019-05-23T11:29:16.426Z,25.44
2019-05-23T11:35:17.102Z,25.48
2019-05-23T11:41:08.994Z,25.40
2019-05-23T11:43:59.628Z,25.19
2019-05-23T11:46:43.463Z,24.84
2019-05-23T11:53:02.084Z,24.53
2019-05-23T11:55:54.369Z,25.21
2019-05-23T11:59:01.221Z,25.11
2019-05-23T12:02:00.119Z,25.59
2019-05-23T12:07:45.594Z,26.16
2019-05-23T12:10:36.048Z,25.66
2019-05-23T12:13:18.969Z,24.89
2019-05-23T12:19:13.036Z,25.53
2019-05-23T12:22:03.472Z,26.18
2019-05-23T12:24:46.223Z,26.44
2019-05-23T12:27:36.603Z,26.82
2019-05-23T12:30:20.891Z,26.98
2019-05-23T12:36:13.388Z,27.51
2019-05-23T12:42:32.134Z,27.93
2019-05-23T12:45:22.677Z,27.28
2019-05-23T12:51:31.881Z,26.33
2019-05-23T12:54:22.307Z,26.79
2019-05-23T12:57:25.772Z,26.88
2019-05-23T13:00:35.598Z,26.89
2019-05-23T13:03:19.204Z,26.13
2019-05-23T13:06:09.845Z,25.74
2019-05-23T13:08:52.813Z,25.70
2019-05-23T13:11:43.245Z,25.25
2019-05-23T13:14:26.672Z,25.25
2019-05-23T13:17:17.179Z,25.45
2019-05-23T13:20:00.490Z,25.86
2019-05-23T13:22:50.910Z,26.00
2019-05-23T13:25:33.520Z,25.97
2019-05-23T13:28:24.071Z,25.95
2019-05-23T13:31:07.159Z,25.84
2019-05-23T13:33:57.530Z,25.72
2019-05-23T13:36:40.928Z,25.70
2019-05-23T13:39:23.978Z,25.62
2019-05-23T13:42:14.483Z,25.66
2019-05-23T13:44:57.974Z,25.85
2019-05-23T13:51:17.439Z,26.16
2019-05-23T13:54:07.836Z,25.46
2019-05-23T13:56:51.541Z,25.58
2019-05-23T13:59:42.161Z,25.82
2019-05-23T14:02:24.886Z,25.68
2019-05-23T14:08:12.856Z,25.60
2019-05-23T14:11:01.009Z,25.91
2019-05-23T14:13:59.640Z,26.27
2019-05-23T14:20:11.926Z,26.46
2019-05-23T14:26:31.295Z,26.64
2019-05-23T14:29:21.661Z,27.04
2019-05-23T14:35:32.859Z,27.30
2019-05-23T14:38:30.379Z,27.17
2019-05-23T14:41:09.974Z,26.97
2019-05-23T14:43:53.216Z,27.04
2019-05-23T14:47:02.523Z,27.09
2019-05-23T14:53:11.671Z,25.80
2019-05-23T14:56:02.214Z,25.37
2019-05-23T14:58:45.480Z,25.57
2019-05-23T15:01:36.259Z,25.22
2019-05-23T15:04:19.762Z,24.56
2019-05-23T15:07:10.164Z,24.69
2019-05-23T15:09:53.678Z,24.64
2019-05-23T15:12:44.039Z,24.91
2019-05-23T15:15:27.144Z,24.83
2019-05-23T15:18:17.814Z,24.76
2019-05-23T15:21:01.316Z,25.06
2019-05-23T15:23:51.733Z,25.00
2019-05-23T15:26:34.677Z,25.15
2019-05-23T15:29:28.978Z,24.95
2019-05-23T15:32:29.331Z,24.94
2019-05-23T15:35:19.757Z,24.47
2019-05-23T15:38:02.778Z,24.24
2019-05-23T15:40:53.176Z,24.54
2019-05-23T15:43:36.281Z,24.15
2019-05-23T15:46:26.634Z,23.96
2019-05-23T15:49:11.485Z,23.97
2019-05-23T15:52:20.717Z,24.19
2019-05-23T15:55:30.969Z,24.11
2019-05-23T16:01:46.808Z,24.27
2019-05-23T16:08:21.999Z,23.86
2019-05-23T16:11:12.631Z,23.92
2019-05-23T16:13:55.995Z,23.91
2019-05-23T16:19:43.303Z,23.90
2019-05-23T16:22:14.593Z,23.53
2019-05-23T16:25:05.099Z,23.55
2019-05-23T16:27:47.855Z,23.56
2019-05-23T16:33:48.000Z,23.33
2019-05-23T16:36:38.382Z,23.27
2019-05-23T16:39:21.943Z,23.32
2019-05-23T16:45:22.349Z,23.10
2019-05-23T16:48:12.740Z,23.01
2019-05-23T16:50:55.508Z,22.91
2019-05-23T17:00:33.757Z,22.81
2019-05-23T17:03:42.968Z,22.85
2019-05-23T17:06:52.170Z,22.83
2019-05-23T17:13:04.942Z,22.77
2019-05-23T17:19:28.058Z,22.76
2019-05-23T17:28:57.304Z,22.43
2019-05-23T17:35:33.236Z,22.28
2019-05-23T17:38:23.959Z,22.29
2019-05-23T17:41:06.705Z,22.19
2019-05-23T17:43:57.065Z,22.17
2019-05-23T17:46:40.888Z,22.22
2019-05-23T17:49:31.624Z,22.15
2019-05-23T17:52:14.776Z,22.02
2019-05-23T17:55:05.669Z,22.18
2019-05-23T17:57:48.484Z,22.05
2019-05-23T18:03:35.209Z,21.98
2019-05-23T18:09:31.079Z,21.80
2019-05-23T18:12:21.635Z,21.94
2019-05-23T18:15:05.035Z,21.89
2019-05-23T18:17:58.788Z,21.76
2019-05-23T18:21:00.341Z,21.76
2019-05-23T18:23:50.899Z,21.68
2019-05-23T18:26:34.260Z,21.60
2019-05-23T18:29:24.789Z,21.57
2019-05-23T18:32:12.205Z,21.53
2019-05-23T18:34:56.199Z,21.42
2019-05-23T18:37:46.695Z,21.48
2019-05-23T18:40:29.293Z,21.45
2019-05-23T18:43:19.703Z,21.34
2019-05-23T18:46:05.883Z,21.26
2019-05-23T18:48:56.378Z,21.14
2019-05-23T18:51:40.332Z,21.01
2019-05-23T18:54:30.759Z,20.96
2019-05-23T18:57:14.305Z,20.82
2019-05-23T19:00:16.602Z,20.70
2019-05-23T19:03:07.190Z,20.62
2019-05-23T19:05:50.079Z,20.50
2019-05-23T19:08:40.738Z,20.37
2019-05-23T19:11:23.759Z,20.26
2019-05-23T19:14:14.170Z,20.16
2019-05-23T19:16:57.793Z,20.08
2019-05-23T19:19:48.326Z,20.04
2019-05-23T19:22:31.760Z,20.00
2019-05-23T19:25:22.623Z,19.94
2019-05-23T19:28:05.868Z,19.88
2019-05-23T19:34:06.732Z,19.70
2019-05-23T19:36:57.158Z,19.66
2019-05-23T19:39:40.483Z,19.64
2019-05-23T19:42:30.874Z,19.59
2019-05-23T19:45:14.163Z,19.57
2019-05-23T19:51:07.198Z,19.47
2019-05-23T19:53:57.739Z,19.40
2019-05-23T19:56:41.251Z,19.35
2019-05-23T19:59:31.715Z,19.31
2019-05-23T20:09:13.572Z,18.97
2019-05-23T20:15:28.247Z,18.77
2019-05-23T20:21:41.921Z,18.62
2019-05-23T20:24:32.272Z,18.51
2019-05-23T20:27:35.192Z,18.39
2019-05-23T20:30:41.249Z,18.25
2019-05-23T20:33:31.729Z,18.14
2019-05-23T20:36:15.955Z,18.01
2019-05-23T20:39:08.292Z,17.92
2019-05-23T20:41:51.261Z,17.83
2019-05-23T20:44:41.686Z,17.74
2019-05-23T20:47:24.872Z,17.65
2019-05-23T20:53:43.818Z,17.48
2019-05-23T20:56:34.278Z,17.36
2019-05-23T20:59:24.637Z,17.24
2019-05-23T21:02:28.031Z,17.15
2019-05-23T21:05:18.484Z,17.01
2019-05-23T21:08:01.819Z,16.88
2019-05-23T21:10:52.498Z,16.76
2019-05-23T21:13:36.096Z,16.69
2019-05-23T21:16:26.510Z,16.62
2019-05-23T21:19:09.333Z,16.59
2019-05-23T21:25:27.978Z,16.42
2019-05-23T21:28:18.374Z,16.32
2019-05-23T21:31:02.090Z,16.25
2019-05-23T21:33:53.982Z,16.15
2019-05-23T21:36:56.850Z,16.12
2019-05-23T21:39:47.310Z,16.15
2019-05-23T21:42:44.958Z,16.15
2019-05-23T21:45:22.525Z,16.10
2019-05-23T21:48:05.973Z,15.96
2019-05-23T21:50:56.421Z,15.83
2019-05-23T21:53:39.664Z,15.72
2019-05-23T21:56:22.590Z,15.57
2019-05-23T21:59:25.988Z,15.51
2019-05-23T22:05:50.709Z,15.46
2019-05-23T22:08:53.530Z,15.38
2019-05-23T22:15:15.768Z,15.15
2019-05-23T22:21:28.561Z,15.01
2019-05-23T22:24:32.110Z,14.96
2019-05-23T22:27:35.243Z,14.88
2019-05-23T22:30:45.531Z,14.80
2019-05-23T22:33:53.443Z,14.75
2019-05-23T22:36:57.048Z,14.70
2019-05-23T22:40:07.744Z,14.65
2019-05-23T22:43:20.573Z,14.62
2019-05-23T22:49:33.009Z,14.53
2019-05-23T22:52:43.286Z,14.46
2019-05-23T22:55:45.804Z,14.37
2019-05-23T22:58:48.659Z,14.30
2019-05-23T23:01:58.920Z,14.24
2019-05-23T23:05:01.529Z,14.18
2019-05-23T23:08:11.756Z,14.13
2019-05-23T23:11:14.545Z,14.09
2019-05-23T23:14:24.879Z,14.07
2019-05-23T23:17:27.890Z,14.05
2019-05-23T23:20:38.150Z,14.03
2019-05-23T23:23:41.522Z,14.02
2019-05-23T23:26:51.829Z,13.94
2019-05-23T23:29:55.117Z,13.89
2019-05-23T23:33:05.393Z,13.85
2019-05-23T23:36:08.224Z,13.78
2019-05-23T23:38:59.481Z,13.74
2019-05-23T23:42:02.902Z,13.69
2019-05-23T23:45:24.643Z,13.66
2019-05-23T23:48:34.284Z,13.57
2019-05-23T23:51:36.261Z,13.52
2019-05-23T23:54:46.831Z,13.47
2019-05-23T23:57:56.170Z,13.41
